Anchorville, MI (48004)

4:58 PM EDT on August 27, 2015 (GMT -0400)
Swan Creek | | Change Station
CLOSE
Current Station
Personal Weather Station
Location: Michigan, MI
Elevation: 584 ft
Nearby Weather Stations

Elev 584 ft 42.68 °N, 82.65 °W | Updated 3 minutes ago

Overcast
Overcast
64.4 °F
Feels Like 64.4 °F
N
3.0
Wind Variable Wind from NW
Gusts 5.0 mph

Today
High -- | Low -- °F
--% Chance of Precip.
Yesterday
High -- | Low -- °F
Precip. -- in
6:49 AM 8:13 PM
Waxing Gibbous, 95% visible
Pressure 30.19 in
Visibility 12.0 miles
Clouds Overcast 3000 ft
Dew Point 56 °F
Humidity 73%
Rainfall 0.00 in
Snow Depth Not available.
UV 1 out of 12
Pollen 9.50 out of 12
Air Quality Not available.
Flu Activity Not available.
METAR KMTC 272055Z 00000KT 12SM OVC030 18/12 A3016 RMK SLP223 T01810122 55005
Pressure 30.19 in
Visibility 12.0 miles
Clouds Overcast 3000 ft
Dew Point 56 °F
Humidity 73%
Rainfall 0.00 in
Snow Depth Not available.
UV 1 out of 12
Pollen 9.50 out of 12
Air Quality Not available.
Flu Activity Not available.
METAR KMTC 272055Z 00000KT 12SM OVC030 18/12 A3016 RMK SLP223 T01810122 55005

10-Day Weather Forecast

×

Almanac

Astronomy

Aug. 27, 2015 Rise Set
Actual Time
Civil Twilight
Nautical Twilight
Astronomical Twilight
Moon
Length of Visible Light
Length of Day
Tomorrow will be .
, % of the Moon is Illuminated

Today's Extremes

State Highs State Lows

Community

WunderPhotos

Upload Photos

1,850,212 photos uploaded!

WunderBlogs® & News

Nearby

Air Quality

  Air Quality AQ Index Pollutant
Not available.

Snow Depth

Station Depth Elevation

Earthquake Activity

City Distance Mag. Time & Date
Minimum magnitude displayed is 2.5.

Coastal Water Temperatures

Place Temperature

Stations

Nearby Weather Stations

Station Location Temp. Windchill Dew Point Humidity Wind Precip. Elev Updated Type